createdAt,value
2017-11-24T00:00:58.602Z,75.7
2017-11-24T00:01:58.584Z,75.79
2017-11-24T00:02:58.560Z,75.89
2017-11-24T00:03:58.810Z,75.6
2017-11-24T00:04:58.527Z,75.6
2017-11-24T00:05:58.510Z,75.36
2017-11-24T00:06:58.492Z,76.03
2017-11-24T00:07:58.675Z,76.03
2017-11-24T00:08:58.727Z,75.64
2017-11-24T00:09:58.440Z,75.13
2017-11-24T00:10:58.423Z,75.04
2017-11-24T00:11:58.693Z,75.51
2017-11-24T00:12:58.660Z,75.13
2017-11-24T00:13:58.370Z,75.16
2017-11-24T00:14:58.356Z,75.04
2017-11-24T00:15:58.605Z,75.07
2017-11-24T00:16:58.587Z,75.07
2017-11-24T00:17:58.301Z,75.36
2017-11-24T00:18:58.551Z,74.84
2017-11-24T00:19:58.544Z,74.79
2017-11-24T00:20:58.250Z,75.26
2017-11-24T00:21:58.233Z,75.26
2017-11-24T00:22:58.216Z,75.26
2017-11-24T00:23:58.200Z,75.55
2017-11-24T00:24:58.448Z,74.98
2017-11-24T00:25:58.167Z,74.88
2017-11-24T00:26:58.148Z,75.16
2017-11-24T00:27:58.129Z,75.55
2017-11-24T00:28:58.114Z,75.45
2017-11-24T00:29:58.367Z,75.55
2017-11-24T00:30:58.350Z,76.12
2017-11-24T00:31:58.332Z,76.31
2017-11-24T00:32:58.320Z,76.31
2017-11-24T00:33:58.307Z,76.03
2017-11-24T00:34:58.011Z,76.12
2017-11-24T00:35:58.274Z,75.55
2017-11-24T00:36:57.978Z,75.64
2017-11-24T00:37:58.232Z,75.84
2017-11-24T00:38:58.211Z,75.36
2017-11-24T00:39:58.196Z,75.84
2017-11-24T00:40:57.907Z,75.64
2017-11-24T00:41:57.896Z,76.03
2017-11-24T00:42:58.149Z,75.45
2017-11-24T00:43:58.124Z,75.55
2017-11-24T00:44:58.113Z,76.21
2017-11-24T00:45:58.095Z,76.21
2017-11-24T00:46:58.080Z,75.45
2017-11-24T00:47:58.065Z,76.03
2017-11-24T00:48:58.059Z,76.21
2017-11-24T00:49:58.031Z,76.03
2017-11-24T00:50:57.737Z,75.93
2017-11-24T00:51:57.721Z,76.4
2017-11-24T00:52:57.711Z,76.21
2017-11-24T00:53:57.958Z,76.4
2017-11-24T00:54:57.946Z,76.79
2017-11-24T00:55:57.928Z,76.31
2017-11-24T00:56:57.904Z,76.12
2017-11-24T00:57:57.896Z,76.4
2017-11-24T00:58:57.876Z,76.59
2017-11-24T00:59:57.586Z,76.59
2017-11-24T01:00:57.570Z,76.4
2017-11-24T01:01:57.820Z,76.79
2017-11-24T01:02:57.805Z,76.21
2017-11-24T01:03:57.519Z,76.79
2017-11-24T01:04:57.502Z,76.4
2017-11-24T01:05:57.752Z,76.59
2017-11-24T01:06:57.757Z,76.79
2017-11-24T01:07:57.719Z,77.17
2017-11-24T01:08:57.706Z,76.69
2017-11-24T01:09:57.688Z,76.31
2017-11-24T01:10:57.674Z,76.5
2017-11-24T01:11:57.382Z,76.4
2017-11-24T01:12:57.368Z,75.74
2017-11-24T01:13:57.615Z,76.12
2017-11-24T01:14:57.599Z,76.21
2017-11-24T01:15:57.580Z,76.03
2017-11-24T01:16:57.565Z,75.26
2017-11-24T01:17:57.553Z,76.69
2017-11-24T01:18:57.260Z,75.84
2017-11-24T01:19:57.247Z,75.84
2017-11-24T01:20:57.228Z,75.55
2017-11-24T01:21:57.485Z,75.36
2017-11-24T01:22:57.192Z,75.64
2017-11-24T01:23:57.182Z,75.07
2017-11-24T01:24:57.435Z,76.03
2017-11-24T01:25:57.144Z,75.55
2017-11-24T01:26:57.395Z,75.36
2017-11-24T01:27:57.109Z,75.36
2017-11-24T01:28:57.360Z,75.55
2017-11-24T01:29:57.353Z,74.88
2017-11-24T01:30:57.059Z,74.88
2017-11-24T01:31:57.312Z,75.45
2017-11-24T01:32:57.293Z,74.79
2017-11-24T01:33:57.276Z,74.98
2017-11-24T01:34:57.263Z,74.21
2017-11-24T01:35:57.245Z,75.64
2017-11-24T01:36:56.957Z,75.36
2017-11-24T01:37:56.942Z,74.69
2017-11-24T01:38:56.923Z,74.79
2017-11-24T01:39:57.175Z,75.16
2017-11-24T01:40:56.893Z,74.79
2017-11-24T01:41:57.145Z,75.45
2017-11-24T01:42:57.148Z,74.79
2017-11-24T01:43:57.111Z,75.45
2017-11-24T01:44:57.094Z,75.84
2017-11-24T01:45:57.076Z,75.55
2017-11-24T01:46:57.060Z,75.36
2017-11-24T01:47:57.039Z,75.45
2017-11-24T01:48:56.758Z,75.26
2017-11-24T01:49:57.017Z,74.79
2017-11-24T01:50:56.996Z,75.26
2017-11-24T01:51:56.704Z,75.36
2017-11-24T01:52:56.960Z,75.36
2017-11-24T01:53:56.682Z,75.45
2017-11-24T01:54:56.923Z,75.36
2017-11-24T01:55:56.637Z,77.07
2017-11-24T01:56:56.622Z,77.55
2017-11-24T01:57:56.880Z,77.17
2017-11-24T01:58:56.858Z,76.79
2017-11-24T01:59:56.575Z,77.45
2017-11-24T02:00:56.559Z,77.78
2017-11-24T02:01:56.540Z,78.31
2017-11-24T02:02:56.792Z,77.74
2017-11-24T02:03:56.775Z,78.22
2017-11-24T02:04:56.489Z,78.5
2017-11-24T02:05:56.740Z,78.5
2017-11-24T02:06:56.723Z,82.31
2017-11-24T02:07:56.707Z,83.88
2017-11-24T02:08:56.421Z,83.31
2017-11-24T02:09:56.404Z,82.83
2017-11-24T02:10:56.656Z,81.3
2017-11-24T02:11:56.640Z,82.92
2017-11-24T02:12:56.626Z,82.54
2017-11-24T02:13:56.334Z,80.92
2017-11-24T02:14:56.325Z,81.02
2017-11-24T02:15:56.580Z,80.64
2017-11-24T02:16:56.559Z,80.54
2017-11-24T02:17:56.273Z,82.92
2017-11-24T02:18:56.256Z,84.55
2017-11-24T02:19:56.238Z,83.59
2017-11-24T02:20:56.489Z,83.97
2017-11-24T02:21:56.481Z,82.92
2017-11-24T02:22:56.512Z,83.59
2017-11-24T02:23:56.441Z,83.31
2017-11-24T02:24:56.424Z,82.73
2017-11-24T02:25:56.408Z,82.92
2017-11-24T02:26:56.131Z,81.97
2017-11-24T02:27:56.103Z,82.54
2017-11-24T02:28:56.354Z,81.49
2017-11-24T02:29:56.344Z,81.3
2017-11-24T02:30:56.328Z,80.92
2017-11-24T02:31:56.316Z,81.4
2017-11-24T02:32:56.023Z,81.21
2017-11-24T02:33:56.280Z,80.73
2017-11-24T02:34:55.985Z,81.02
2017-11-24T02:35:56.251Z,79.97
2017-11-24T02:36:55.955Z,79.4
2017-11-24T02:37:55.934Z,79.07
2017-11-24T02:38:55.923Z,78.35
2017-11-24T02:39:55.906Z,77.3
2017-11-24T02:40:56.158Z,76.79
2017-11-24T02:41:56.142Z,76.12
2017-11-24T02:42:55.858Z,75.45
2017-11-24T02:43:56.111Z,74.5
2017-11-24T02:44:56.087Z,74.31
2017-11-24T02:45:56.079Z,74.12
2017-11-24T02:46:56.060Z,73.83
2017-11-24T02:47:56.056Z,73.17
2017-11-24T02:48:56.026Z,73.07
2017-11-24T02:49:55.737Z,72.78
2017-11-24T02:50:55.988Z,72.5
2017-11-24T02:51:55.701Z,72.5
2017-11-24T02:52:55.954Z,72.5
2017-11-24T02:53:55.666Z,71.83
2017-11-24T02:54:55.921Z,71.93
2017-11-24T02:55:55.902Z,71.36
2017-11-24T02:56:55.625Z,70.69
2017-11-24T02:57:55.869Z,69.83
2017-11-24T02:58:55.591Z,69.54
2017-11-24T02:59:55.568Z,67.83
2017-11-24T03:00:55.821Z,66.4
2017-11-24T03:01:55.802Z,65.83
2017-11-24T03:02:55.515Z,64.59
2017-11-24T03:03:55.502Z,64.12
2017-11-24T03:04:55.756Z,63.89
2017-11-24T03:05:55.735Z,63.7
2017-11-24T03:06:55.445Z,62.18
2017-11-24T03:07:55.430Z,62.56
2017-11-24T03:08:55.680Z,62.46
2017-11-24T03:09:55.395Z,63.04
2017-11-24T03:10:55.655Z,60.85
2017-11-24T03:11:55.359Z,62.18
2017-11-24T03:12:55.347Z,62.46
2017-11-24T03:13:55.594Z,62.18
2017-11-24T03:14:55.576Z,60.66
2017-11-24T03:15:55.294Z,61.58
2017-11-24T03:16:55.276Z,61.61
2017-11-24T03:17:55.528Z,61.51
2017-11-24T03:18:55.509Z,61.38
2017-11-24T03:19:55.494Z,60.63
2017-11-24T03:20:55.208Z,60.91
2017-11-24T03:21:55.187Z,61.19
2017-11-24T03:22:55.169Z,60.15
2017-11-24T03:23:55.149Z,59.67
2017-11-24T03:24:55.406Z,59.58
2017-11-24T03:25:55.387Z,59.39
2017-11-24T03:26:55.372Z,59.77
2017-11-24T03:27:55.082Z,59.1
2017-11-24T03:28:55.062Z,59.67
2017-11-24T03:29:55.053Z,59.2
2017-11-24T03:30:55.032Z,59.29
2017-11-24T03:31:55.009Z,58.81
2017-11-24T03:32:55.260Z,58.53
2017-11-24T03:33:55.243Z,58.34
2017-11-24T03:34:54.956Z,59.01
2017-11-24T03:35:55.204Z,58.81
2017-11-24T03:36:54.923Z,58.44
2017-11-24T03:37:55.174Z,58.53
2017-11-24T03:38:55.155Z,57.77
2017-11-24T03:39:54.867Z,58.34
2017-11-24T03:40:55.119Z,58.34
2017-11-24T03:41:55.100Z,59.01
2017-11-24T03:42:55.081Z,59.2
2017-11-24T03:43:55.063Z,59.77
2017-11-24T03:44:55.048Z,59.39
2017-11-24T03:45:55.026Z,59.48
2017-11-24T03:46:54.742Z,59.96
2017-11-24T03:47:54.995Z,60.53
2017-11-24T03:48:54.978Z,60.72
2017-11-24T03:49:54.690Z,61.1
2017-11-24T03:50:54.943Z,62.05
2017-11-24T03:51:54.654Z,62.91
2017-11-24T03:52:54.906Z,63.2
2017-11-24T03:53:54.887Z,63.39
2017-11-24T03:54:54.601Z,63.48
2017-11-24T03:55:54.849Z,64.81
2017-11-24T03:56:54.565Z,64.81
2017-11-24T03:57:54.545Z,64.9
2017-11-24T03:58:54.811Z,65.19
2017-11-24T03:59:54.783Z,66.05
2017-11-24T04:00:54.768Z,66.14
2017-11-24T04:01:54.476Z,66.72
2017-11-24T04:02:54.733Z,66.33
2017-11-24T04:03:54.443Z,66.72
2017-11-24T04:04:54.425Z,67.38
2017-11-24T04:05:54.681Z,67.57
2017-11-24T04:06:54.388Z,67.57
2017-11-24T04:07:54.638Z,67.57
2017-11-24T04:08:54.555Z,67.95
2017-11-24T04:09:54.612Z,68.33
2017-11-24T04:10:54.318Z,68.24
2017-11-24T04:11:54.305Z,68.43
2017-11-24T04:12:54.552Z,68.33
2017-11-24T04:13:54.267Z,68.43
2017-11-24T04:14:54.515Z,68.9
2017-11-24T04:15:54.231Z,68.81
2017-11-24T04:16:54.481Z,69
2017-11-24T04:17:54.195Z,69.29
2017-11-24T04:18:54.194Z,68.71
2017-11-24T04:19:54.438Z,69.57
2017-11-24T04:20:54.143Z,69.67
2017-11-24T04:21:54.124Z,70.43
2017-11-24T04:22:54.378Z,70.43
2017-11-24T04:23:54.358Z,70.33
2017-11-24T04:24:54.343Z,70.9
2017-11-24T04:25:54.055Z,70.43
2017-11-24T04:26:54.305Z,70.62
2017-11-24T04:27:54.020Z,70.43
2017-11-24T04:28:54.267Z,70.9
2017-11-24T04:29:53.987Z,70.9
2017-11-24T04:30:54.234Z,71.47
2017-11-24T04:31:54.228Z,71.38
2017-11-24T04:32:53.935Z,71.28
2017-11-24T04:33:54.183Z,72.14
2017-11-24T04:34:54.172Z,72.33
2017-11-24T04:35:54.150Z,72.14
2017-11-24T04:36:53.857Z,72.62
2017-11-24T04:37:54.115Z,72.62
2017-11-24T04:38:54.095Z,72.81
2017-11-24T04:39:54.077Z,73.19
2017-11-24T04:40:53.803Z,73.85
2017-11-24T04:41:54.043Z,73.85
2017-11-24T04:42:53.754Z,74.14
2017-11-24T04:43:53.739Z,74.14
2017-11-24T04:44:53.990Z,74.8
2017-11-24T04:45:53.705Z,74.9
2017-11-24T04:46:53.715Z,75.09
2017-11-24T04:47:53.946Z,74.9
2017-11-24T04:48:53.655Z,75.76
2017-11-24T04:49:53.631Z,76.04
2017-11-24T04:50:53.881Z,76.61
2017-11-24T04:51:53.867Z,76.33
2017-11-24T04:52:53.579Z,76.52
2017-11-24T04:53:53.866Z,77.09
2017-11-24T04:54:53.818Z,77.19
2017-11-24T04:55:53.525Z,77
2017-11-24T04:56:53.776Z,77
2017-11-24T04:57:53.757Z,77.47
2017-11-24T04:58:53.471Z,77.76
2017-11-24T04:59:53.735Z,77.85
2017-11-24T05:00:53.707Z,77.85
2017-11-24T05:01:53.424Z,77.76
2017-11-24T05:02:53.677Z,78.33
2017-11-24T05:03:53.656Z,78.23
2017-11-24T05:04:53.638Z,78.42
2017-11-24T05:05:53.621Z,78.14
2017-11-24T05:06:53.606Z,78.23
2017-11-24T05:07:53.313Z,78.99
2017-11-24T05:08:53.575Z,78.71
2017-11-24T05:09:53.550Z,78.71
2017-11-24T05:10:53.530Z,78.61
2017-11-24T05:11:53.529Z,78.23
2017-11-24T05:12:53.498Z,78.23
2017-11-24T05:13:53.210Z,78.71
2017-11-24T05:14:53.191Z,78.8
2017-11-24T05:15:53.443Z,79.09
2017-11-24T05:16:53.422Z,79.57
2017-11-24T05:17:53.141Z,79.09
2017-11-24T05:18:53.128Z,79.75
2017-11-24T05:19:53.372Z,79.66
2017-11-24T05:20:53.356Z,80.23
2017-11-24T05:21:53.337Z,80.9
2017-11-24T05:22:53.328Z,80.71
2017-11-24T05:23:53.033Z,80.71
2017-11-24T05:24:53.284Z,81.28
2017-11-24T05:25:53.005Z,80.99
2017-11-24T05:26:53.253Z,81.28
2017-11-24T05:27:53.240Z,80.99
2017-11-24T05:28:53.225Z,81.28
2017-11-24T05:29:53.197Z,81.76
2017-11-24T05:30:53.198Z,82.14
2017-11-24T05:31:52.900Z,82.32
2017-11-24T05:32:53.148Z,81.95
2017-11-24T05:33:53.131Z,82.14
2017-11-24T05:34:53.117Z,82.32
2017-11-24T05:35:53.094Z,82.51
2017-11-24T05:36:53.092Z,83.37
2017-11-24T05:37:53.055Z,83.18
2017-11-24T05:38:52.770Z,82.99
2017-11-24T05:39:53.020Z,82.99
2017-11-24T05:40:52.745Z,83.65
2017-11-24T05:41:52.718Z,83.37
2017-11-24T05:42:52.970Z,83.28
2017-11-24T05:43:52.953Z,83.94
2017-11-24T05:44:52.936Z,83.75
2017-11-24T05:45:52.648Z,83.85
2017-11-24T05:46:52.900Z,83.56
2017-11-24T05:47:52.887Z,84.42
2017-11-24T05:48:52.867Z,84.52
2017-11-24T05:49:52.847Z,84.42
2017-11-24T05:50:52.564Z,84.23
2017-11-24T05:51:52.813Z,84.23
2017-11-24T05:52:52.800Z,83.94
2017-11-24T05:53:52.778Z,84.23
2017-11-24T05:54:52.766Z,84.7
2017-11-24T05:55:52.743Z,84.52
2017-11-24T05:56:52.724Z,85.08
2017-11-24T05:57:52.710Z,84.99
2017-11-24T05:58:52.422Z,85.08
2017-11-24T05:59:52.675Z,84.99
2017-11-24T06:00:52.389Z,84.8
2017-11-24T06:01:52.645Z,84.89
2017-11-24T06:02:52.646Z,85.18
2017-11-24T06:03:52.607Z,84.99
2017-11-24T06:04:52.589Z,84.99
2017-11-24T06:05:52.570Z,85.18
2017-11-24T06:06:52.554Z,84.7
2017-11-24T06:07:52.538Z,84.33
2017-11-24T06:08:52.450Z,85.08
2017-11-24T06:09:52.233Z,85.18
2017-11-24T06:10:52.215Z,85.75
2017-11-24T06:11:52.195Z,85.61
2017-11-24T06:12:52.449Z,85.66
2017-11-24T06:13:52.166Z,85.47
2017-11-24T06:14:52.414Z,85.56
2017-11-24T06:15:52.127Z,85.66
2017-11-24T06:16:52.110Z,86.13
2017-11-24T06:17:52.101Z,86.18
2017-11-24T06:18:52.076Z,86.22
2017-11-24T06:19:52.325Z,86.61
2017-11-24T06:20:52.313Z,86.51
2017-11-24T06:21:52.295Z,86.99
2017-11-24T06:22:52.274Z,86.76
2017-11-24T06:23:51.984Z,86.94
2017-11-24T06:24:51.970Z,86.57
2017-11-24T06:25:52.220Z,86.94
2017-11-24T06:26:51.933Z,87.42
2017-11-24T06:27:52.187Z,87.61
2017-11-24T06:28:51.900Z,87.8
2017-11-24T06:29:51.888Z,88.37
2017-11-24T06:30:51.866Z,88.46
2017-11-24T06:31:51.847Z,88.09
2017-11-24T06:32:52.098Z,89.04
2017-11-24T06:33:51.813Z,88.94
2017-11-24T06:34:51.795Z,89.14
2017-11-24T06:35:51.774Z,89.51
2017-11-24T06:36:51.765Z,89.7
2017-11-24T06:37:52.014Z,89.7
2017-11-24T06:38:52.006Z,90.56
2017-11-24T06:39:51.709Z,90.37
2017-11-24T06:40:51.960Z,90.66
2017-11-24T06:41:51.669Z,91.03
2017-11-24T06:42:51.655Z,91.32
2017-11-24T06:43:51.912Z,91.42
2017-11-24T06:44:51.887Z,91.42
2017-11-24T06:45:51.888Z,91.89
2017-11-24T06:46:51.858Z,91.42
2017-11-24T06:47:51.833Z,91.7
2017-11-24T06:48:51.816Z,92.18
2017-11-24T06:49:51.530Z,92.56
2017-11-24T06:50:51.512Z,92.84
2017-11-24T06:51:51.495Z,93.13
2017-11-24T06:52:51.481Z,93.32
2017-11-24T06:53:51.463Z,93.7
2017-11-24T06:54:51.441Z,93.79
2017-11-24T06:55:51.426Z,94.46
2017-11-24T06:56:51.409Z,94.74
2017-11-24T06:57:51.664Z,94.93
2017-11-24T06:58:51.374Z,94.65
2017-11-24T06:59:51.628Z,95.22
2017-11-24T07:00:51.603Z,95.22
2017-11-24T07:01:51.589Z,95.32
2017-11-24T07:02:51.571Z,95.89
2017-11-24T07:03:51.292Z,95.7
2017-11-24T07:04:51.270Z,95.6
2017-11-24T07:05:51.520Z,95.89
2017-11-24T07:06:51.500Z,95.98
2017-11-24T07:07:51.215Z,95.89
2017-11-24T07:08:51.485Z,96.17
2017-11-24T07:09:51.183Z,96.08
2017-11-24T07:10:51.163Z,96.26
2017-11-24T07:11:51.416Z,96.26
2017-11-24T07:12:51.396Z,96.74
2017-11-24T07:13:51.375Z,96.94
2017-11-24T07:14:51.362Z,96.46
2017-11-24T07:15:51.341Z,96.84
2017-11-24T07:16:51.058Z,97.31
2017-11-24T07:17:51.307Z,97.41
2017-11-24T07:18:51.025Z,97.79
2017-11-24T07:19:51.004Z,97.5
2017-11-24T07:20:50.986Z,97.31
2017-11-24T07:21:50.967Z,98.55
2017-11-24T07:22:51.222Z,98.27
2017-11-24T07:23:51.211Z,98.27
2017-11-24T07:24:51.190Z,98.27
2017-11-24T07:25:50.900Z,97.41
2017-11-24T07:26:51.152Z,97.6
2017-11-24T07:27:50.863Z,97.31
2017-11-24T07:28:50.849Z,97.13
2017-11-24T07:29:51.095Z,97.5
2017-11-24T07:30:51.090Z,97.41
2017-11-24T07:31:51.069Z,96.94
2017-11-24T07:32:51.148Z,97.13
2017-11-24T07:33:51.038Z,96.94
2017-11-24T07:34:50.741Z,97.03
2017-11-24T07:35:50.991Z,97.6
2017-11-24T07:36:50.704Z,97.79
2017-11-24T07:37:50.689Z,97.31
2017-11-24T07:38:50.935Z,97.5
2017-11-24T07:39:50.654Z,97.41
2017-11-24T07:40:50.899Z,97.88
2017-11-24T07:41:50.612Z,97.79
2017-11-24T07:42:50.865Z,97.6
2017-11-24T07:43:50.849Z,97.41
2017-11-24T07:44:50.567Z,97.6
2017-11-24T07:45:50.541Z,98.36
2017-11-24T07:46:50.522Z,98.27
2017-11-24T07:47:50.778Z,98.17
2017-11-24T07:48:50.801Z,98.46
2017-11-24T07:49:50.743Z,98.17
2017-11-24T07:50:50.725Z,98.65
2017-11-24T07:51:50.709Z,98.65
2017-11-24T07:52:50.420Z,99.41
2017-11-24T07:53:50.673Z,99.02
2017-11-24T07:54:50.647Z,99.12
2017-11-24T07:55:50.636Z,99.22
2017-11-24T07:56:50.616Z,99.69
2017-11-24T07:57:50.657Z,99.99
2017-11-24T07:58:50.592Z,99.98
2017-11-24T07:59:50.294Z,99.5
2017-11-24T08:00:50.272Z,99.99
2017-11-24T08:01:50.528Z,99.88
2017-11-24T08:02:50.509Z,99.99
2017-11-24T08:03:50.490Z,99.99
2017-11-24T08:04:50.471Z,99.99
2017-11-24T08:05:50.186Z,99.99
2017-11-24T08:06:50.435Z,99.99
2017-11-24T08:07:50.421Z,99.99
2017-11-24T08:08:50.605Z,99.99
2017-11-24T08:09:50.395Z,99.99
2017-11-24T08:10:50.362Z,99.99
2017-11-24T08:11:50.346Z,99.99
2017-11-24T08:12:50.072Z,99.99
2017-11-24T08:13:50.316Z,99.99
2017-11-24T08:14:50.298Z,99.99
2017-11-24T08:15:50.276Z,99.99
2017-11-24T08:16:50.259Z,99.99
2017-11-24T08:17:49.983Z,99.99
2017-11-24T08:18:50.227Z,99.99
2017-11-24T08:19:50.204Z,99.99
2017-11-24T08:20:50.189Z,99.99
2017-11-24T08:21:50.208Z,99.99
2017-11-24T08:22:49.884Z,99.99
2017-11-24T08:23:49.868Z,99.99
2017-11-24T08:24:50.115Z,99.99
2017-11-24T08:25:49.833Z,99.99
2017-11-24T08:26:49.813Z,99.99
2017-11-24T08:27:49.795Z,99.99
2017-11-24T08:28:50.056Z,99.99
2017-11-24T08:29:49.765Z,99.99
2017-11-24T08:30:49.764Z,99.99
2017-11-24T08:31:49.724Z,99.99
2017-11-24T08:32:49.984Z,99.99
2017-11-24T08:33:49.960Z,99.99
2017-11-24T08:34:49.940Z,99.99
2017-11-24T08:35:49.924Z,99.99
2017-11-24T08:36:49.638Z,99.99
2017-11-24T08:37:49.897Z,99.99
2017-11-24T08:38:49.605Z,99.99
2017-11-24T08:39:49.857Z,99.99
2017-11-24T08:40:49.833Z,99.99
2017-11-24T08:41:49.551Z,99.99
2017-11-24T08:42:49.531Z,99.99
2017-11-24T08:43:49.513Z,99.99
2017-11-24T08:44:49.503Z,99.99
2017-11-24T08:45:49.771Z,99.99
2017-11-24T08:46:49.736Z,99.99
2017-11-24T08:47:49.715Z,99.99
2017-11-24T08:48:49.721Z,99.99
2017-11-24T08:49:49.414Z,99.99
2017-11-24T08:50:49.661Z,99.99
2017-11-24T08:51:49.644Z,99.99
2017-11-24T08:52:49.356Z,99.99
2017-11-24T08:53:49.341Z,99.99
2017-11-24T08:54:49.323Z,99.99
2017-11-24T08:55:49.309Z,99.99
2017-11-24T08:56:49.562Z,99.99
2017-11-24T08:57:49.276Z,99.99
2017-11-24T08:58:49.531Z,99.99
2017-11-24T08:59:49.237Z,99.99
2017-11-24T09:00:49.219Z,99.99
2017-11-24T09:01:49.201Z,99.99
2017-11-24T09:02:49.183Z,99.99
2017-11-24T09:03:49.164Z,99.99
2017-11-24T09:04:49.420Z,99.99
2017-11-24T09:05:49.137Z,99.99
2017-11-24T09:06:49.119Z,99.99
2017-11-24T09:07:49.367Z,99.99
2017-11-24T09:08:49.356Z,99.99
2017-11-24T09:09:49.062Z,99.99
2017-11-24T09:10:49.313Z,99.99
2017-11-24T09:11:49.301Z,99.99
2017-11-24T09:12:49.013Z,99.99
2017-11-24T09:13:48.995Z,99.99
2017-11-24T09:14:48.978Z,99.99
2017-11-24T09:15:49.232Z,99.99
2017-11-24T09:16:49.216Z,99.99
2017-11-24T09:17:49.195Z,99.99
2017-11-24T09:18:48.911Z,99.99
2017-11-24T09:19:48.893Z,99.99
2017-11-24T09:20:49.151Z,99.99
2017-11-24T09:21:49.127Z,99.99
2017-11-24T09:22:49.111Z,99.99
2017-11-24T09:23:48.828Z,99.99
2017-11-24T09:24:48.812Z,99.99
2017-11-24T09:25:48.791Z,99.99
2017-11-24T09:26:48.777Z,99.99
2017-11-24T09:27:48.760Z,99.99
2017-11-24T09:28:48.741Z,99.99
2017-11-24T09:29:48.730Z,99.99
2017-11-24T09:30:48.979Z,99.99
2017-11-24T09:31:48.691Z,99.99
2017-11-24T09:32:48.947Z,99.99
2017-11-24T09:33:48.657Z,99.99
2017-11-24T09:34:48.912Z,99.99
2017-11-24T09:35:48.625Z,99.99
2017-11-24T09:36:48.608Z,99.99
2017-11-24T09:37:48.863Z,99.99
2017-11-24T09:38:48.885Z,99.99
2017-11-24T09:39:48.557Z,99.99
2017-11-24T09:40:48.808Z,99.99
2017-11-24T09:41:48.521Z,99.99
2017-11-24T09:42:48.789Z,99.99
2017-11-24T09:43:48.760Z,99.99
2017-11-24T09:44:48.790Z,99.99
2017-11-24T09:45:48.457Z,99.99
2017-11-24T09:46:48.707Z,99.99
2017-11-24T09:47:48.692Z,99.99
2017-11-24T09:48:48.406Z,99.99
2017-11-24T09:49:48.661Z,99.99
2017-11-24T09:50:48.373Z,99.99
2017-11-24T09:51:48.625Z,99.99
2017-11-24T09:52:48.351Z,99.99
2017-11-24T09:53:48.329Z,99.99
2017-11-24T09:54:48.573Z,99.99
2017-11-24T09:55:48.288Z,99.99
2017-11-24T09:56:48.274Z,99.99
2017-11-24T09:57:48.257Z,99.99
2017-11-24T09:58:48.512Z,99.99
2017-11-24T09:59:48.491Z,99.99
2017-11-24T10:00:48.479Z,99.99
2017-11-24T10:01:48.470Z,99.99
2017-11-24T10:02:48.172Z,99.99
2017-11-24T10:03:48.158Z,99.99
2017-11-24T10:04:48.442Z,99.99
2017-11-24T10:05:48.119Z,99.99
2017-11-24T10:06:48.380Z,99.99
2017-11-24T10:07:48.250Z,99.99
2017-11-24T10:08:48.545Z,99.99
2017-11-24T10:09:48.053Z,99.99
2017-11-24T10:10:48.036Z,99.99
2017-11-24T10:11:48.017Z,99.99
2017-11-24T10:12:48.294Z,99.99
2017-11-24T10:13:48.253Z,99.99
2017-11-24T10:14:47.967Z,99.99
2017-11-24T10:15:48.232Z,99.99
2017-11-24T10:16:48.206Z,99.99
2017-11-24T10:17:48.186Z,99.99
2017-11-24T10:18:47.899Z,99.99
2017-11-24T10:19:48.153Z,99.99
2017-11-24T10:20:48.132Z,99.99
2017-11-24T10:21:47.874Z,99.99
2017-11-24T10:22:47.832Z,99.99
2017-11-24T10:23:48.084Z,99.99
2017-11-24T10:24:47.796Z,99.99
2017-11-24T10:25:47.778Z,99.99
2017-11-24T10:26:47.765Z,99.99
2017-11-24T10:27:47.748Z,99.99
2017-11-24T10:28:47.741Z,99.99
2017-11-24T10:29:47.984Z,99.99
2017-11-24T10:30:47.963Z,99.99
2017-11-24T10:31:47.946Z,99.99
2017-11-24T10:32:47.936Z,99.99
2017-11-24T10:33:47.644Z,99.99
2017-11-24T10:34:47.900Z,99.99
2017-11-24T10:35:47.609Z,99.99
2017-11-24T10:36:47.594Z,99.99
2017-11-24T10:37:47.848Z,99.99
2017-11-24T10:38:47.558Z,99.99
2017-11-24T10:39:47.813Z,99.99
2017-11-24T10:40:47.524Z,99.99
2017-11-24T10:41:47.508Z,99.99
2017-11-24T10:42:47.760Z,99.99
2017-11-24T10:43:47.742Z,99.99
2017-11-24T10:44:47.724Z,99.99
2017-11-24T10:45:47.709Z,99.99
2017-11-24T10:46:47.689Z,99.99
2017-11-24T10:47:47.409Z,99.99
2017-11-24T10:48:47.394Z,99.99
2017-11-24T10:49:47.646Z,99.99
2017-11-24T10:50:47.621Z,99.99
2017-11-24T10:51:47.336Z,99.99
2017-11-24T10:52:47.326Z,99.99
2017-11-24T10:53:47.299Z,99.99
2017-11-24T10:54:47.281Z,99.99
2017-11-24T10:55:47.550Z,99.99
2017-11-24T10:56:47.517Z,99.99
2017-11-24T10:57:47.233Z,99.99
2017-11-24T10:58:47.497Z,99.99
2017-11-24T10:59:47.200Z,99.99
2017-11-24T11:00:47.179Z,99.99
2017-11-24T11:01:47.433Z,99.99
2017-11-24T11:02:47.145Z,99.99
2017-11-24T11:03:47.396Z,99.99
2017-11-24T11:04:47.379Z,99.99
2017-11-24T11:05:47.092Z,99.99
2017-11-24T11:06:47.348Z,99.99
2017-11-24T11:07:47.369Z,99.99
2017-11-24T11:08:47.041Z,99.99
2017-11-24T11:09:47.025Z,99.99
2017-11-24T11:10:47.008Z,99.99
2017-11-24T11:11:46.989Z,99.99
2017-11-24T11:12:46.974Z,99.99
2017-11-24T11:13:46.956Z,99.99
2017-11-24T11:14:47.208Z,99.99
2017-11-24T11:15:46.920Z,99.99
2017-11-24T11:16:46.902Z,99.99
2017-11-24T11:17:47.157Z,99.99
2017-11-24T11:18:47.140Z,99.99
2017-11-24T11:19:46.854Z,99.99
2017-11-24T11:20:46.838Z,99.99
2017-11-24T11:21:47.086Z,99.99
2017-11-24T11:22:46.804Z,99.99
2017-11-24T11:23:46.785Z,99.99
2017-11-24T11:24:46.778Z,99.99
2017-11-24T11:25:47.032Z,99.99
2017-11-24T11:26:46.731Z,99.99
2017-11-24T11:27:46.713Z,99.99
2017-11-24T11:28:46.695Z,99.99
2017-11-24T11:29:46.957Z,99.99
2017-11-24T11:30:46.663Z,99.99
2017-11-24T11:31:46.914Z,99.99
2017-11-24T11:32:46.898Z,99.99
2017-11-24T11:33:46.884Z,99.99
2017-11-24T11:34:46.883Z,99.99
2017-11-24T11:35:46.846Z,99.99
2017-11-24T11:36:46.824Z,99.99
2017-11-24T11:37:46.549Z,99.99
2017-11-24T11:38:46.799Z,99.99
2017-11-24T11:39:46.778Z,99.99
2017-11-24T11:40:46.488Z,99.99
2017-11-24T11:41:46.473Z,99.99
2017-11-24T11:42:46.729Z,99.99
2017-11-24T11:43:46.449Z,99.99
2017-11-24T11:44:46.693Z,99.99
2017-11-24T11:45:46.678Z,99.99
2017-11-24T11:46:46.663Z,99.99
2017-11-24T11:47:46.638Z,99.99
2017-11-24T11:48:46.623Z,99.99
2017-11-24T11:49:46.340Z,99.99
2017-11-24T11:50:46.591Z,99.99
2017-11-24T11:51:46.573Z,99.99
2017-11-24T11:52:46.554Z,99.99
2017-11-24T11:53:46.537Z,99.99
2017-11-24T11:54:46.255Z,99.99
2017-11-24T11:55:46.232Z,99.99
2017-11-24T11:56:46.487Z,99.99
2017-11-24T11:57:46.477Z,99.99
2017-11-24T11:58:46.448Z,99.99
2017-11-24T11:59:46.432Z,99.99
2017-11-24T12:00:46.152Z,99.99
2017-11-24T12:01:46.407Z,99.99
2017-11-24T12:02:46.380Z,99.99
2017-11-24T12:03:46.094Z,99.99
2017-11-24T12:04:46.354Z,99.99
2017-11-24T12:05:46.056Z,99.99
2017-11-24T12:06:46.036Z,99.99
2017-11-24T12:07:46.027Z,99.99
2017-11-24T12:08:46.681Z,99.99
2017-11-24T12:09:45.988Z,99.99
2017-11-24T12:10:46.254Z,99.99
2017-11-24T12:11:46.225Z,99.99
2017-11-24T12:12:45.932Z,99.99
2017-11-24T12:13:45.921Z,99.99
2017-11-24T12:14:45.898Z,99.99
2017-11-24T12:15:45.880Z,99.99
2017-11-24T12:16:46.132Z,99.99
2017-11-24T12:17:45.848Z,99.99
2017-11-24T12:18:45.830Z,99.99
2017-11-24T12:19:45.811Z,99.99
2017-11-24T12:20:46.073Z,99.99
2017-11-24T12:21:45.775Z,99.99
2017-11-24T12:22:45.757Z,99.99
2017-11-24T12:23:46.007Z,99.99
2017-11-24T12:24:45.994Z,99.99
2017-11-24T12:25:45.979Z,99.99
2017-11-24T12:26:45.701Z,99.99
2017-11-24T12:27:45.681Z,99.99
2017-11-24T12:28:45.927Z,99.99
2017-11-24T12:29:45.918Z,99.99
2017-11-24T12:30:45.622Z,99.99
2017-11-24T12:31:45.875Z,99.99
2017-11-24T12:32:45.862Z,99.99
2017-11-24T12:33:45.849Z,99.99
2017-11-24T12:34:45.550Z,99.99
2017-11-24T12:35:45.802Z,99.99
2017-11-24T12:36:45.520Z,99.99
2017-11-24T12:37:45.498Z,99.99
2017-11-24T12:38:45.753Z,99.99
2017-11-24T12:39:45.735Z,99.99
2017-11-24T12:40:45.726Z,99.99
2017-11-24T12:41:45.700Z,99.99
2017-11-24T12:42:45.413Z,99.99
2017-11-24T12:43:45.399Z,99.99
2017-11-24T12:44:45.659Z,99.99
2017-11-24T12:45:45.367Z,99.99
2017-11-24T12:46:45.350Z,99.99
2017-11-24T12:47:45.600Z,99.99
2017-11-24T12:48:45.321Z,99.99
2017-11-24T12:49:45.294Z,99.99
2017-11-24T12:50:45.288Z,99.99
2017-11-24T12:51:45.527Z,99.99
2017-11-24T12:52:45.510Z,99.99
2017-11-24T12:53:45.218Z,99.99
2017-11-24T12:54:45.202Z,99.99